Time;durP1;ratioP1;P1;durP2;ratioP2;P2;SDS_P1;SDS_P2;PMS_P1;PMS_P2;Temp;Humidity;BMP_temperature;BMP_pressure;BME280_temperature;BME280_humidity;BME280_pressure;Samples;Min_cycle;Max_cycle;Signal;HPM_P1;HPM_P2
2023/04/14 04:12:56;;;;;;;8.63;5.82;;;;;;;10.41;99.33;98742.53;5617581;31;173848;-85
2023/04/14 04:16:01;;;;;;;6.55;5.65;;;;;;;10.43;99.39;98716.75;5625091;31;34256;-89
2023/04/14 04:19:05;;;;;;;6.80;5.37;;;;;;;10.44;100.00;98726.41;5625457;31;34030;-89
2023/04/14 04:22:13;;;;;;;7.68;5.90;;;;;;;10.52;97.87;98719.56;5623597;31;33746;-89
2023/04/14 04:25:16;;;;;;;8.90;6.07;;;;;;;10.54;98.25;98723.91;5624255;31;34184;-85
2023/04/14 04:28:20;;;;;;;8.60;5.57;;;;;;;10.53;97.68;98731.03;5625486;31;33667;-85
2023/04/14 04:31:23;;;;;;;7.55;5.90;;;;;;;10.56;96.61;98735.25;5624224;31;34362;-85
2023/04/14 04:34:31;;;;;;;8.57;6.00;;;;;;;10.51;98.33;98738.22;5624945;31;33509;-85
2023/04/14 04:37:35;;;;;;;7.37;5.93;;;;;;;10.47;97.64;98724.38;5624490;31;33908;-85
2023/04/14 04:40:38;;;;;;;6.35;5.45;;;;;;;10.52;98.24;98716.91;5624760;31;34011;-86
2023/04/14 04:43:42;;;;;;;7.82;6.30;;;;;;;10.51;98.23;98712.56;5625046;31;33847;-86
2023/04/14 04:46:52;;;;;;;11.50;5.90;;;;;;;10.54;98.59;98708.00;5626803;31;33290;-86
2023/04/14 04:49:55;;;;;;;8.60;6.70;;;;;;;10.62;96.23;98705.63;5627012;31;33852;-86
2023/04/14 04:52:59;;;;;;;9.80;6.28;;;;;;;10.70;96.88;98708.50;5627416;31;31904;-85
2023/04/14 04:56:01;;;;;;;10.27;6.28;;;;;;;10.62;96.24;98697.66;5626992;31;34187;-86
2023/04/14 04:59:04;;;;;;;7.32;5.93;;;;;;;10.63;96.59;98716.12;5627160;31;33932;-86
2023/04/14 05:02:07;;;;;;;7.85;6.10;;;;;;;10.68;96.19;98709.59;5628622;31;34555;-86
2023/04/14 05:05:10;;;;;;;9.52;6.62;;;;;;;10.69;96.41;98713.91;5628340;31;34926;-85
2023/04/14 05:08:12;;;;;;;9.40;6.28;;;;;;;10.70;95.21;98732.38;5627947;31;33873;-86
2023/04/14 05:11:17;;;;;;;8.85;6.20;;;;;;;10.75;95.37;98738.19;5627388;31;35048;-85
2023/04/14 05:14:20;;;;;;;9.25;6.75;;;;;;;10.67;96.91;98745.88;5627368;31;34209;-85
2023/04/14 05:17:23;;;;;;;8.27;6.62;;;;;;;10.70;95.76;98750.94;5627398;31;34166;-86
2023/04/14 05:20:26;;;;;;;8.05;6.35;;;;;;;10.62;96.87;98750.69;5626567;31;33994;-86
2023/04/14 05:23:29;;;;;;;8.13;6.30;;;;;;;10.83;97.66;98748.19;5617224;31;33750;-86
2023/04/14 05:26:32;;;;;;;8.15;6.30;;;;;;;10.70;97.82;98750.94;5612534;31;34065;-86
2023/04/14 05:29:55;;;;;;;9.88;6.18;;;;;;;10.60;100.00;98747.28;5612674;31;33918;-86
2023/04/14 05:32:58;;;;;;;9.32;6.85;;;;;;;10.50;100.00;98739.19;5614262;31;33803;-86
2023/04/14 05:36:01;;;;;;;10.05;6.32;;;;;;;10.53;100.00;98733.69;5618344;31;34115;-86
2023/04/14 05:39:03;;;;;;;10.27;6.37;;;;;;;10.60;100.00;98731.38;5616103;31;33788;-86
2023/04/14 05:42:07;;;;;;;9.55;7.07;;;;;;;10.58;100.00;98730.66;5618526;31;34760;-86
2023/04/14 05:45:10;;;;;;;11.65;6.85;;;;;;;10.60;100.00;98734.88;5613614;31;34600;-86
2023/04/14 05:48:13;;;;;;;9.25;6.35;;;;;;;10.58;99.59;98736.81;5619515;31;33772;-86
2023/04/14 05:51:17;;;;;;;7.75;6.80;;;;;;;10.73;97.98;98741.91;5623268;31;33984;-86
2023/04/14 05:54:20;;;;;;;9.48;6.60;;;;;;;10.72;99.09;98737.56;5622998;31;33717;-86
2023/04/14 05:57:22;;;;;;;9.20;6.37;;;;;;;10.64;100.00;98751.41;5621921;31;34192;-86
2023/04/14 06:00:50;;;;;;;9.10;6.45;;;;;;;10.69;99.96;98749.25;5615508;31;35201;-91
2023/04/14 06:03:53;;;;;;;8.60;6.70;;;;;;;10.67;100.00;98750.34;5610447;31;34514;-87
2023/04/14 06:06:57;;;;;;;7.95;6.45;;;;;;;10.73;100.00;98749.88;5610668;31;34205;-86
2023/04/14 06:10:00;;;;;;;9.05;6.57;;;;;;;10.85;99.57;98738.31;5612901;31;34042;-87
2023/04/14 06:13:03;;;;;;;10.05;6.75;;;;;;;10.99;97.86;98731.09;5617881;31;33715;-87
2023/04/14 06:19:52;;;;;;;9.82;6.70;;;;;;;11.07;100.00;98731.34;5348381;29;20111;-88
2023/04/14 06:22:55;;;;;;;7.82;6.40;;;;;;;11.18;100.00;98739.28;5575779;32;34005;-89
2023/04/14 06:25:58;;;;;;;11.23;7.03;;;;;;;11.06;99.11;98724.31;5578398;32;34354;-89
2023/04/14 06:29:01;;;;;;;9.40;6.25;;;;;;;11.15;98.93;98723.62;5575767;32;34674;-86
2023/04/14 06:32:05;;;;;;;12.00;6.85;;;;;;;11.32;96.14;98721.44;5572546;32;34956;-87
2023/04/14 06:35:08;;;;;;;8.45;6.97;;;;;;;11.26;97.77;98724.59;5570244;32;33536;-86
2023/04/14 06:38:24;;;;;;;9.10;7.00;;;;;;;11.29;96.58;98719.03;5572997;32;33554;-87
2023/04/14 06:41:27;;;;;;;7.93;6.20;;;;;;;11.43;96.18;98712.63;5553566;32;34768;-87
2023/04/14 06:44:29;;;;;;;8.63;6.65;;;;;;;11.35;96.24;98710.56;5552131;32;33684;-87
2023/04/14 06:47:32;;;;;;;8.88;7.22;;;;;;;11.38;96.46;98705.03;5550343;32;33929;-85
2023/04/14 06:50:35;;;;;;;13.52;7.07;;;;;;;11.36;96.46;98706.13;5568117;32;34775;-85
2023/04/14 06:53:38;;;;;;;10.23;7.40;;;;;;;11.45;96.81;98713.34;5570661;32;34490;-83
2023/04/14 06:56:40;;;;;;;9.77;6.75;;;;;;;11.35;95.63;98701.78;5570907;32;32394;-84
2023/04/14 06:59:45;;;;;;;8.57;6.78;;;;;;;11.38;95.76;98709.47;5557990;32;33501;-85
2023/04/14 07:02:48;;;;;;;10.43;7.15;;;;;;;11.32;96.24;98709.00;5551789;32;33833;-84
2023/04/14 07:05:52;;;;;;;12.02;7.70;;;;;;;11.37;98.00;98702.50;5551058;32;34543;-85
2023/04/14 07:08:55;;;;;;;9.75;7.82;;;;;;;11.49;96.24;98698.84;5552408;32;34513;-85
2023/04/14 07:11:58;;;;;;;10.90;7.15;;;;;;;11.63;95.98;98705.72;5553533;32;33879;-84
2023/04/14 07:15:00;;;;;;;8.48;7.03;;;;;;;11.77;96.11;98704.56;5553995;32;33707;-85
2023/04/14 07:18:04;;;;;;;9.75;7.57;;;;;;;11.90;96.33;98700.91;5552683;32;33683;-85
2023/04/14 07:21:07;;;;;;;9.65;7.30;;;;;;;11.89;94.85;98704.53;5553297;32;35139;-84
2023/04/14 07:24:10;;;;;;;11.05;7.70;;;;;;;12.00;96.90;98696.53;5553074;32;33535;-85
2023/04/14 07:27:15;;;;;;;7.95;6.95;;;;;;;12.03;96.26;98690.97;5553294;32;34282;-84
2023/04/14 07:30:18;;;;;;;9.60;7.30;;;;;;;11.93;94.49;98693.53;5556905;32;34370;-89
2023/04/14 07:33:21;;;;;;;12.25;7.30;;;;;;;11.91;95.39;98694.66;5553651;32;34780;-89
2023/04/14 07:36:24;;;;;;;9.57;7.55;;;;;;;12.11;93.49;98688.53;5551548;32;33553;-90
2023/04/14 07:39:27;;;;;;;9.77;7.60;;;;;;;12.25;94.15;98681.22;5553187;32;33905;-89
2023/04/14 07:42:31;;;;;;;10.23;7.68;;;;;;;12.44;95.99;98682.31;5552587;32;34007;-87
2023/04/14 07:45:33;;;;;;;10.23;6.78;;;;;;;12.46;91.43;98688.34;5553130;32;34447;-85
2023/04/14 07:48:37;;;;;;;12.48;7.07;;;;;;;12.31;92.12;98677.22;5552803;32;33995;-85
2023/04/14 07:51:40;;;;;;;11.52;7.22;;;;;;;12.47;94.99;98682.09;5552991;32;33446;-85
2023/04/14 07:54:44;;;;;;;9.02;7.10;;;;;;;12.68;91.96;98679.41;5552438;32;34828;-86
2023/04/14 07:57:47;;;;;;;11.63;7.15;;;;;;;12.71;93.34;98675.66;5554358;32;33823;-85
2023/04/14 08:00:50;;;;;;;11.50;6.93;;;;;;;12.75;91.67;98685.03;5555261;32;33653;-84
2023/04/14 08:03:53;;;;;;;11.02;7.20;;;;;;;12.59;91.91;98669.53;5553564;32;34259;-84
2023/04/14 08:06:56;;;;;;;11.52;7.32;;;;;;;12.58;95.08;98681.97;5553525;32;34950;-85
2023/04/14 08:09:59;;;;;;;13.90;7.32;;;;;;;12.72;93.95;98686.12;5548805;32;33821;-86
2023/04/14 08:13:02;;;;;;;9.48;6.78;;;;;;;12.47;93.86;98693.53;5553313;32;34560;-86
2023/04/14 08:16:05;;;;;;;10.60;6.72;;;;;;;12.57;94.24;98696.25;5569680;32;33909;-86
2023/04/14 08:19:08;;;;;;;9.60;6.65;;;;;;;12.38;94.85;98697.81;5572005;32;34139;-85
2023/04/14 08:22:11;;;;;;;10.07;7.28;;;;;;;12.42;95.23;98695.75;5573360;32;33736;-86
2023/04/14 08:25:14;;;;;;;8.82;6.82;;;;;;;12.48;94.67;98678.44;5572097;32;34667;-85
2023/04/14 08:28:17;;;;;;;19.42;6.82;;;;;;;12.63;93.65;98673.63;5571754;32;34702;-85
2023/04/14 08:31:23;;;;;;;10.43;6.72;;;;;;;12.37;95.95;98679.38;5572704;32;34728;-84
2023/04/14 08:34:28;;;;;;;12.77;7.35;;;;;;;12.33;96.27;98668.13;5573972;32;34009;-84
2023/04/14 08:37:31;;;;;;;10.23;7.30;;;;;;;12.20;98.19;98667.47;5573709;32;34216;-84
2023/04/14 08:40:41;;;;;;;11.57;7.20;;;;;;;12.30;97.50;98675.50;5572032;32;34557;-85
2023/04/14 08:43:44;;;;;;;11.00;6.90;;;;;;;12.10;97.63;98681.53;5572040;32;34410;-85
2023/04/14 08:46:51;;;;;;;9.18;7.03;;;;;;;12.09;99.87;98681.66;5574266;32;33778;-85
2023/04/14 08:50:14;;;;;;;11.27;7.60;;;;;;;12.03;99.75;98674.16;5572539;32;33952;-84
2023/04/14 08:53:20;;;;;;;11.68;7.22;;;;;;;12.07;100.00;98686.28;5572117;32;33658;-84
2023/04/14 08:56:26;;;;;;;14.38;7.03;;;;;;;12.12;100.00;98684.09;5571473;32;33995;-83
2023/04/14 08:59:30;;;;;;;10.15;7.00;;;;;;;12.23;100.00;98693.81;5572981;32;34014;-81
2023/04/14 09:02:33;;;;;;;11.18;7.35;;;;;;;12.21;100.00;98706.37;5574033;32;34037;-82
2023/04/14 09:05:37;;;;;;;10.73;6.75;;;;;;;11.92;100.00;98713.09;5573879;32;33646;-82
2023/04/14 09:08:39;;;;;;;9.35;7.40;;;;;;;12.32;100.00;98711.63;5574149;32;33934;-81
2023/04/14 09:11:43;;;;;;;12.15;7.68;;;;;;;12.20;100.00;98697.56;5576905;32;33763;-84
2023/04/14 09:14:48;;;;;;;12.27;7.55;;;;;;;12.26;100.00;98707.69;5574745;32;35323;-86
2023/04/14 09:17:52;;;;;;;10.35;7.62;;;;;;;12.08;100.00;98704.72;5573882;32;33955;-86
2023/04/14 09:20:57;;;;;;;10.18;8.18;;;;;;;11.82;100.00;98710.34;5566407;32;34377;-91
2023/04/14 09:24:28;;;;;;;11.95;8.15;;;;;;;11.69;100.00;98712.31;5558942;32;35027;-86
2023/04/14 09:27:34;;;;;;;10.50;8.80;;;;;;;11.65;100.00;98718.84;5572078;32;33636;-88
2023/04/14 09:30:37;;;;;;;11.90;8.00;;;;;;;11.58;100.00;98727.31;5570552;32;34240;-88
2023/04/14 09:33:44;;;;;;;11.07;8.77;;;;;;;11.55;100.00;98719.59;5570075;32;34397;-87
2023/04/14 09:37:05;;;;;;;13.35;9.23;;;;;;;11.54;100.00;98728.53;5569968;32;34474;-87
2023/04/14 09:40:08;;;;;;;10.05;8.45;;;;;;;11.46;100.00;98722.97;5570262;32;34151;-86
2023/04/14 09:43:25;;;;;;;11.43;8.55;;;;;;;11.29;100.00;98729.66;5552284;32;34479;-87
2023/04/14 09:46:28;;;;;;;22.20;8.90;;;;;;;11.26;100.00;98732.56;5556245;32;34267;-86
2023/04/14 09:49:32;;;;;;;12.02;9.60;;;;;;;11.09;100.00;98736.50;5562871;32;33814;-86
2023/04/14 09:52:37;;;;;;;13.98;9.48;;;;;;;10.98;100.00;98726.75;5568486;32;34271;-87
2023/04/14 09:55:44;;;;;;;14.30;9.50;;;;;;;10.78;100.00;98711.41;5574391;31;34243;-87
2023/04/14 09:58:49;;;;;;;16.25;9.18;;;;;;;10.74;100.00;98709.12;5574087;32;34772;-87
2023/04/14 10:01:54;;;;;;;18.20;9.32;;;;;;;10.59;100.00;98706.69;5577360;32;33846;-87
2023/04/14 10:05:05;;;;;;;14.57;10.02;;;;;;;10.61;100.00;98703.94;5584005;31;34946;-88
2023/04/14 10:08:08;;;;;;;13.95;9.88;;;;;;;10.63;100.00;98702.00;5571290;31;33876;-85
2023/04/14 10:11:21;;;;;;;13.18;10.00;;;;;;;10.75;100.00;98702.84;5563536;32;34512;-84
2023/04/14 10:14:24;;;;;;;15.40;10.27;;;;;;;10.86;100.00;98710.81;5573881;32;34113;-84
2023/04/14 10:17:27;;;;;;;15.75;10.45;;;;;;;11.09;100.00;98708.19;5574774;31;34637;-84
2023/04/14 10:20:35;;;;;;;13.85;9.90;;;;;;;11.22;100.00;98710.69;5573288;32;34245;-86
2023/04/14 10:23:40;;;;;;;13.00;10.43;;;;;;;10.92;100.00;98717.47;5569877;32;33690;-85
2023/04/14 10:26:46;;;;;;;16.48;10.80;;;;;;;10.88;100.00;98713.34;5576659;31;34017;-89
2023/04/14 10:29:48;;;;;;;14.40;9.82;;;;;;;10.81;100.00;98710.31;5574246;31;33807;-89
2023/04/14 10:32:52;;;;;;;13.80;10.48;;;;;;;10.74;100.00;98709.12;5569418;32;33956;-90
2023/04/14 10:35:59;;;;;;;17.20;10.88;;;;;;;10.55;100.00;98725.59;5566331;31;34670;-84
2023/04/14 10:39:04;;;;;;;15.57;10.45;;;;;;;10.69;100.00;98716.56;5561384;32;34131;-84
2023/04/14 10:42:08;;;;;;;24.45;9.82;;;;;;;10.59;100.00;98708.47;5570751;31;34829;-83
2023/04/14 10:45:11;;;;;;;15.80;10.70;;;;;;;10.73;100.00;98715.38;5562647;31;33993;-85
2023/04/14 10:48:14;;;;;;;13.32;9.90;;;;;;;10.46;100.00;98716.53;5571227;31;34126;-85
2023/04/14 10:51:18;;;;;;;14.45;10.43;;;;;;;10.38;100.00;98714.44;5578867;32;34880;-85
2023/04/14 10:54:21;;;;;;;15.48;10.18;;;;;;;10.20;100.00;98706.91;5561078;32;33883;-85
2023/04/14 10:57:25;;;;;;;15.85;10.73;;;;;;;10.07;100.00;98708.78;5558902;32;34432;-84
2023/04/14 11:00:30;;;;;;;17.45;10.68;;;;;;;10.06;100.00;98701.81;5556275;32;33623;-84
2023/04/14 11:03:43;;;;;;;16.52;11.23;;;;;;;10.10;100.00;98705.91;5574806;31;34182;-85
2023/04/14 11:06:46;;;;;;;19.85;11.18;;;;;;;10.24;100.00;98699.56;5594271;31;33687;-84
2023/04/14 11:09:49;;;;;;;17.60;11.85;;;;;;;10.24;100.00;98696.91;5593273;31;34247;-85
2023/04/14 11:13:09;;;;;;;22.33;12.05;;;;;;;10.25;100.00;98691.50;5595401;31;34258;-85
2023/04/14 11:16:25;;;;;;;;;;;;;;;10.35;100.00;98696.09;5598075;31;34205;-85
2023/04/14 11:19:28;;;;;;;15.40;11.18;;;;;;;10.32;100.00;98689.22;5583000;31;34009;-85
2023/04/14 11:22:44;;;;;;;15.45;12.07;;;;;;;10.54;100.00;98692.09;5554929;32;35340;-87
2023/04/14 11:25:48;;;;;;;16.35;10.70;;;;;;;10.46;100.00;98690.03;5564035;32;35179;-86
2023/04/14 11:28:53;;;;;;;16.35;11.00;;;;;;;10.44;100.00;98690.16;5574560;32;33901;-85
2023/04/14 11:32:04;;;;;;;19.27;11.32;;;;;;;10.41;100.00;98684.22;5567617;31;34591;-86
2023/04/14 11:35:07;;;;;;;17.10;11.52;;;;;;;10.53;100.00;98672.69;5564084;31;33993;-85
2023/04/14 11:38:13;;;;;;;16.83;11.02;;;;;;;10.48;100.00;98667.75;5571706;31;35024;-86
2023/04/14 11:41:16;;;;;;;16.90;11.12;;;;;;;10.40;100.00;98675.41;5565701;31;34485;-85
2023/04/14 11:44:20;;;;;;;15.35;10.98;;;;;;;10.38;100.00;98677.34;5570150;31;34008;-86
2023/04/14 11:47:22;;;;;;;18.37;10.60;;;;;;;10.36;100.00;98680.09;5563136;31;35217;-86
2023/04/14 11:50:28;;;;;;;16.70;11.75;;;;;;;10.25;100.00;98680.06;5568955;32;36282;-89
2023/04/14 11:53:31;;;;;;;17.80;10.75;;;;;;;10.24;100.00;98679.22;5570192;31;33827;-89
2023/04/14 11:56:38;;;;;;;16.05;10.25;;;;;;;10.23;100.00;98672.25;5559134;32;33783;-86
2023/04/14 11:59:42;;;;;;;14.27;9.90;;;;;;;10.19;100.00;98670.78;5569462;31;34645;-86
2023/04/14 12:02:45;;;;;;;15.93;10.23;;;;;;;10.27;100.00;98677.31;5553313;31;33553;-85
2023/04/14 12:05:55;;;;;;;14.05;9.18;;;;;;;10.19;100.00;98664.63;5564426;31;33928;-85
2023/04/14 12:09:02;;;;;;;12.07;8.30;;;;;;;10.27;100.00;98674.66;5562663;32;33999;-84
2023/04/14 12:12:13;;;;;;;11.05;7.97;;;;;;;10.14;100.00;98667.63;5562847;31;34704;-85
2023/04/14 12:15:18;;;;;;;11.05;8.43;;;;;;;10.10;100.00;98661.72;5553008;32;34150;-85
2023/04/14 12:18:21;;;;;;;11.88;8.27;;;;;;;10.04;100.00;98667.47;5558532;31;33651;-86
2023/04/14 12:21:25;;;;;;;11.75;8.20;;;;;;;9.89;100.00;98661.53;5566663;32;34108;-87
2023/04/14 12:24:42;;;;;;;15.20;8.93;;;;;;;9.85;100.00;98662.69;5567302;32;35180;-87
2023/04/14 12:27:52;;;;;;;19.33;8.88;;;;;;;10.00;100.00;98646.63;5557678;31;33585;-84
2023/04/14 12:31:02;;;;;;;13.65;8.75;;;;;;;9.90;100.00;98660.56;5551021;32;34022;-85
2023/04/14 12:34:05;;;;;;;10.15;7.68;;;;;;;9.90;100.00;98634.06;5560482;32;33699;-85
2023/04/14 12:37:10;;;;;;;12.52;7.55;;;;;;;9.95;100.00;98623.13;5572615;31;34664;-86
2023/04/14 12:40:12;;;;;;;10.18;6.00;;;;;;;9.83;100.00;98606.37;5579492;31;34813;-86
2023/04/14 12:43:25;;;;;;;4.90;3.95;;;;;;;9.54;100.00;98636.69;5568789;32;33699;-87
2023/04/14 12:46:30;;;;;;;5.37;4.55;;;;;;;9.44;100.00;98640.97;5553364;32;33568;-86
2023/04/14 12:49:36;;;;;;;6.00;4.75;;;;;;;9.19;100.00;98652.50;5566779;31;34766;-87
2023/04/14 12:52:39;;;;;;;7.57;5.47;;;;;;;9.14;100.00;98666.87;5570368;31;33772;-87
2023/04/14 12:55:42;;;;;;;7.18;5.10;;;;;;;9.10;100.00;98675.16;5570463;32;34163;-87
2023/04/14 12:58:46;;;;;;;8.48;6.22;;;;;;;9.06;100.00;98669.25;5569787;32;34162;-87
2023/04/14 13:01:49;;;;;;;10.05;7.25;;;;;;;9.13;100.00;98682.87;5561216;31;33683;-85
2023/04/14 13:04:51;;;;;;;8.45;7.12;;;;;;;9.09;100.00;98691.97;5555203;32;34366;-86
2023/04/14 13:07:55;;;;;;;8.32;7.37;;;;;;;9.11;100.00;98698.84;5572259;32;35516;-85
2023/04/14 13:10:57;;;;;;;7.95;5.80;;;;;;;9.07;100.00;98707.97;5577931;32;34077;-85
2023/04/14 13:14:00;;;;;;;8.35;6.75;;;;;;;9.10;100.00;98713.03;5583597;31;34065;-87
2023/04/14 13:17:03;;;;;;;7.32;6.47;;;;;;;9.04;100.00;98716.09;5584986;31;34254;-89
2023/04/14 13:20:06;;;;;;;6.10;5.10;;;;;;;8.93;100.00;98718.63;5578000;31;34134;-91
2023/04/14 13:23:09;;;;;;;6.70;5.10;;;;;;;8.92;100.00;98714.31;5597429;31;35249;-90
2023/04/14 13:26:12;;;;;;;5.97;4.87;;;;;;;8.82;100.00;98714.09;5594669;31;33919;-90
2023/04/14 13:29:15;;;;;;;6.65;5.60;;;;;;;8.81;100.00;98709.78;5594436;31;34007;-85
2023/04/14 13:32:17;;;;;;;5.00;4.35;;;;;;;8.87;100.00;98712.84;5577449;31;33993;-85
2023/04/14 13:35:20;;;;;;;4.78;4.30;;;;;;;8.98;100.00;98722.69;5574563;32;33880;-84
2023/04/14 13:38:23;;;;;;;4.57;3.47;;;;;;;9.00;100.00;98726.03;5573592;32;33595;-84
2023/04/14 13:41:26;;;;;;;3.75;3.40;;;;;;;8.91;100.00;98739.94;5576825;32;34225;-84
2023/04/14 13:44:31;;;;;;;3.15;2.85;;;;;;;8.77;100.00;98744.34;5573299;32;34196;-84
2023/04/14 13:47:33;;;;;;;4.28;3.03;;;;;;;8.70;100.00;98752.81;5572742;32;33712;-84
2023/04/14 13:50:36;;;;;;;4.00;2.80;;;;;;;8.72;100.00;98742.97;5572411;32;33719;-83
2023/04/14 13:53:39;;;;;;;3.95;3.20;;;;;;;8.67;100.00;98738.00;5572722;32;34569;-84
2023/04/14 13:56:42;;;;;;;3.95;3.25;;;;;;;8.73;100.00;98727.03;5575036;32;34045;-84
2023/04/14 13:59:44;;;;;;;5.18;3.85;;;;;;;8.78;100.00;98739.91;5574343;32;35959;-85
2023/04/14 14:02:47;;;;;;;4.80;3.90;;;;;;;8.86;100.00;98742.87;5571004;32;33769;-84
2023/04/14 14:05:51;;;;;;;4.70;4.15;;;;;;;8.86;100.00;98742.87;5569569;32;35226;-85
2023/04/14 14:09:03;;;;;;;8.27;4.53;;;;;;;8.95;100.00;98743.19;5570389;32;33738;-84
2023/04/14 14:12:10;;;;;;;6.40;4.70;;;;;;;8.94;100.00;98730.94;5570384;32;33602;-86
2023/04/14 14:15:13;;;;;;;6.50;4.78;;;;;;;8.91;100.00;98739.94;5572766;32;34019;-85
2023/04/14 14:18:16;;;;;;;5.78;4.45;;;;;;;8.98;100.00;98750.91;5561532;32;33631;-86
2023/04/14 14:21:19;;;;;;;5.40;4.68;;;;;;;8.93;100.00;98747.72;5553512;32;34258;-85
2023/04/14 14:24:22;;;;;;;4.80;4.30;;;;;;;8.99;100.00;98749.94;5569282;32;34015;-85
2023/04/14 14:27:25;;;;;;;5.15;4.55;;;;;;;8.83;100.00;98758.97;5574461;32;34622;-85
2023/04/14 14:30:27;;;;;;;4.53;4.12;;;;;;;8.81;100.00;98757.38;5576227;32;33919;-85
2023/04/14 14:33:30;;;;;;;5.30;4.22;;;;;;;8.73;100.00;98760.53;5578457;32;34871;-85
2023/04/14 14:36:33;;;;;;;4.40;4.00;;;;;;;8.58;100.00;98757.13;5572537;32;34016;-85
2023/04/14 14:39:36;;;;;;;4.12;3.50;;;;;;;8.43;100.00;98767.75;5561291;32;33612;-85
2023/04/14 14:42:39;;;;;;;2.92;2.60;;;;;;;8.37;100.00;98784.00;5554385;32;33860;-86
2023/04/14 14:45:41;;;;;;;2.70;2.50;;;;;;;8.30;100.00;98788.84;5559195;32;34820;-85
2023/04/14 14:48:44;;;;;;;2.08;1.87;;;;;;;8.01;100.00;98785.47;5556572;32;33835;-85
2023/04/14 14:51:49;;;;;;;2.92;2.20;;;;;;;7.90;100.00;98784.34;5556355;32;34532;-85
2023/04/14 14:54:52;;;;;;;2.97;2.72;;;;;;;7.86;100.00;98785.53;5555038;32;33535;-85
2023/04/14 14:57:55;;;;;;;3.42;2.83;;;;;;;7.93;100.00;98789.47;5557412;32;34255;-85
2023/04/14 15:00:58;;;;;;;3.17;2.87;;;;;;;7.92;100.00;98797.47;5572138;32;34007;-85
2023/04/14 15:04:00;;;;;;;2.95;2.65;;;;;;;7.91;100.00;98804.53;5572389;32;34410;-85
2023/04/14 15:07:04;;;;;;;3.12;2.75;;;;;;;7.79;100.00;98814.09;5570464;32;33788;-85
2023/04/14 15:10:07;;;;;;;2.70;2.50;;;;;;;7.71;100.00;98807.59;5570684;32;33773;-86
2023/04/14 15:13:11;;;;;;;3.35;3.05;;;;;;;7.72;100.00;98818.06;5569573;32;34710;-85
2023/04/14 15:16:14;;;;;;;3.70;3.35;;;;;;;7.63;100.00;98819.50;5569066;32;33755;-86
2023/04/14 15:19:18;;;;;;;5.43;4.00;;;;;;;7.62;100.00;98832.78;5569750;32;35002;-86
2023/04/14 15:22:20;;;;;;;4.95;4.50;;;;;;;7.63;100.00;98835.34;5578130;32;33715;-86
2023/04/14 15:25:23;;;;;;;5.28;4.78;;;;;;;7.75;100.00;98840.78;5577897;32;33832;-85
